Time;durP1;ratioP1;P1;durP2;ratioP2;P2;SDS_P1;SDS_P2;PMS_P1;PMS_P2;Temp;Humidity;BMP_temperature;BMP_pressure;BME280_temperature;BME280_humidity;BME280_pressure;Samples;Min_cycle;Max_cycle;Signal;HPM_P1;HPM_P2
2021/11/16 00:01:03;;;;;;;53.92;28.70;;;;;;;;;;5085928;28;20020;-75
2021/11/16 00:03:29;;;;;;;50.72;28.10;;;;;;;;;;5090376;28;20028;-75
2021/11/16 00:05:54;;;;;;;54.53;29.40;;;;;;;;;;5095409;28;20177;-76
2021/11/16 00:08:20;;;;;;;58.53;33.43;;;;;;;;;;5094704;28;20035;-76
2021/11/16 00:10:45;;;;;;;56.60;31.93;;;;;;;;;;5077946;28;20123;-76
2021/11/16 00:13:11;;;;;;;59.80;32.65;;;;;;;;;;5090065;28;20491;-75
2021/11/16 00:15:40;;;;;;;57.77;31.93;;;;;;;;;;5094201;28;20434;-75
2021/11/16 00:18:06;;;;;;;65.00;34.27;;;;;;;;;;5094258;28;20016;-74
2021/11/16 00:20:34;;;;;;;65.20;34.60;;;;;;;;;;5095888;28;20028;-75
2021/11/16 00:22:59;;;;;;;60.10;32.17;;;;;;;;;;5083894;28;20054;-75
2021/11/16 00:25:33;;;;;;;65.83;34.47;;;;;;;;;;5082444;28;20446;-75
2021/11/16 00:27:58;;;;;;;64.63;33.13;;;;;;;;;;5081614;28;20047;-74
2021/11/16 00:30:23;;;;;;;64.00;32.10;;;;;;;;;;5092848;28;20028;-75
2021/11/16 00:32:49;;;;;;;53.77;31.60;;;;;;;;;;5078389;28;20035;-75
2021/11/16 00:35:14;;;;;;;67.30;34.50;;;;;;;;;;5090338;28;20312;-75
2021/11/16 00:37:39;;;;;;;60.00;32.70;;;;;;;;;;5094993;28;20081;-75
2021/11/16 00:40:07;;;;;;;63.57;33.10;;;;;;;;;;5090052;28;20536;-75
2021/11/16 00:42:32;;;;;;;53.07;31.37;;;;;;;;;;5079156;28;20012;-75
2021/11/16 00:44:57;;;;;;;54.80;30.63;;;;;;;;;;5077061;28;20118;-75
2021/11/16 00:47:23;;;;;;;53.33;29.57;;;;;;;;;;5093865;28;20503;-74
2021/11/16 00:49:50;;;;;;;58.03;31.33;;;;;;;;;;5093671;28;20073;-74
2021/11/16 00:52:15;;;;;;;52.60;29.57;;;;;;;;;;5085337;28;20031;-73
2021/11/16 00:54:41;;;;;;;55.10;30.33;;;;;;;;;;5081444;28;20019;-75
2021/11/16 00:57:06;;;;;;;49.10;29.40;;;;;;;;;;5085619;28;20012;-74
2021/11/16 00:59:32;;;;;;;53.90;30.43;;;;;;;;;;5093502;28;20012;-75
2021/11/16 01:01:57;;;;;;;54.55;29.55;;;;;;;;;;5094366;28;20012;-76
2021/11/16 01:04:26;;;;;;;60.33;31.90;;;;;;;;;;5094552;28;20426;-76
2021/11/16 01:06:51;;;;;;;61.77;31.43;;;;;;;;;;5093171;28;20028;-75
2021/11/16 01:09:16;;;;;;;60.87;33.00;;;;;;;;;;5090179;28;20028;-74
2021/11/16 01:11:41;;;;;;;52.97;29.97;;;;;;;;;;5076685;28;20048;-75
2021/11/16 01:14:06;;;;;;;60.70;30.90;;;;;;;;;;5094671;28;20024;-75
2021/11/16 01:16:32;;;;;;;56.87;30.43;;;;;;;;;;5092217;28;20429;-76
2021/11/16 01:18:58;;;;;;;59.13;30.87;;;;;;;;;;5094439;28;20020;-75
2021/11/16 01:21:24;;;;;;;51.83;29.67;;;;;;;;;;5090989;28;20031;-76
2021/11/16 01:23:49;;;;;;;56.90;30.47;;;;;;;;;;5088400;28;20107;-75
2021/11/16 01:26:15;;;;;;;63.70;32.50;;;;;;;;;;5091552;28;20036;-76
2021/11/16 01:28:40;;;;;;;83.20;30.90;;;;;;;;;;5093561;28;20064;-75
2021/11/16 01:31:07;;;;;;;63.33;26.93;;;;;;;;;;5088409;28;20025;-75
2021/11/16 01:33:53;;;;;;;122.43;33.97;;;;;;;;;;5086751;28;20085;-76
2021/11/16 01:36:18;;;;;;;;;;;;;;;;;;5076966;28;20086;-76
2021/11/16 01:38:43;;;;;;;57.70;29.93;;;;;;;;;;5093018;28;19908;-76
2021/11/16 01:41:10;;;;;;;52.77;29.33;;;;;;;;;;5089508;28;20483;-76
2021/11/16 01:43:35;;;;;;;130.23;36.17;;;;;;;;;;5074852;28;20608;-75
2021/11/16 01:46:03;;;;;;;78.50;31.93;;;;;;;;;;5094036;28;20016;-75
2021/11/16 01:48:29;;;;;;;91.13;30.60;;;;;;;;;;5093888;28;20116;-75
2021/11/16 01:50:54;;;;;;;66.47;30.03;;;;;;;;;;5092958;28;20031;-76
2021/11/16 01:53:20;;;;;;;70.60;31.47;;;;;;;;;;5079545;28;20028;-75
2021/11/16 01:55:45;;;;;;;169.88;38.30;;;;;;;;;;5077680;28;20032;-75
2021/11/16 01:58:10;;;;;;;91.73;34.23;;;;;;;;;;5090206;28;20034;-75
2021/11/16 02:00:39;;;;;;;207.98;38.90;;;;;;;;;;5090074;28;20528;-74
2021/11/16 02:03:05;;;;;;;225.30;39.97;;;;;;;;;;5073030;28;20024;-75
2021/11/16 02:05:36;;;;;;;283.37;45.57;;;;;;;;;;5073964;28;20376;-75
2021/11/16 02:08:01;;;;;;;329.80;47.07;;;;;;;;;;5073510;28;20029;-75
2021/11/16 02:10:26;;;;;;;288.70;44.87;;;;;;;;;;5090407;28;20024;-76
2021/11/16 02:12:51;;;;;;;432.20;53.05;;;;;;;;;;5089284;28;20100;-76
2021/11/16 02:15:17;;;;;;;274.60;43.97;;;;;;;;;;5093708;28;20376;-76
2021/11/16 02:17:44;;;;;;;188.50;39.50;;;;;;;;;;5093790;28;20016;-76
2021/11/16 02:20:10;;;;;;;188.97;40.73;;;;;;;;;;5091579;28;20116;-75
2021/11/16 02:22:35;;;;;;;303.57;46.47;;;;;;;;;;5083782;28;20055;-76
2021/11/16 02:25:00;;;;;;;180.37;38.13;;;;;;;;;;5072572;28;20099;-75
2021/11/16 02:27:26;;;;;;;274.27;43.87;;;;;;;;;;5077832;28;20496;-74
2021/11/16 02:29:51;;;;;;;239.83;43.03;;;;;;;;;;5079677;28;20019;-76
2021/11/16 02:32:16;;;;;;;244.10;43.03;;;;;;;;;;5087987;28;20438;-75
2021/11/16 02:34:41;;;;;;;240.73;40.93;;;;;;;;;;5093304;28;20020;-75
2021/11/16 02:37:07;;;;;;;284.42;42.95;;;;;;;;;;5093291;28;20073;-74
2021/11/16 02:39:32;;;;;;;264.90;42.67;;;;;;;;;;5090649;28;20035;-74
2021/11/16 02:41:57;;;;;;;218.17;39.37;;;;;;;;;;5087771;28;20028;-73
2021/11/16 02:44:23;;;;;;;148.10;36.23;;;;;;;;;;5093331;28;20016;-74
2021/11/16 02:46:49;;;;;;;251.70;41.70;;;;;;;;;;5091881;28;20028;-74
2021/11/16 02:49:15;;;;;;;135.47;35.20;;;;;;;;;;5093140;28;20028;-75
2021/11/16 02:51:40;;;;;;;140.57;33.83;;;;;;;;;;5078933;28;20392;-74
2021/11/16 02:54:16;;;;;;;86.67;27.83;;;;;;;;;;5086486;28;20123;-72
2021/11/16 02:56:43;;;;;;;62.90;26.75;;;;;;;;;;5075217;28;20020;-76
2021/11/16 02:59:08;;;;;;;64.63;25.50;;;;;;;;;;5072827;28;20028;-74
2021/11/16 03:01:34;;;;;;;96.83;27.57;;;;;;;;;;5083016;28;20020;-74
2021/11/16 03:03:59;;;;;;;120.03;28.23;;;;;;;;;;5093027;28;20020;-74
2021/11/16 03:06:24;;;;;;;148.00;32.67;;;;;;;;;;5071256;28;20185;-74
2021/11/16 03:08:49;;;;;;;147.80;31.90;;;;;;;;;;5086756;28;20036;-74
2021/11/16 03:11:16;;;;;;;172.98;33.22;;;;;;;;;;5079940;28;20431;-73
2021/11/16 03:13:41;;;;;;;201.27;35.53;;;;;;;;;;5070841;28;20033;-74
2021/11/16 03:16:09;;;;;;;267.05;39.47;;;;;;;;;;5072347;28;20101;-74
2021/11/16 03:18:34;;;;;;;339.90;44.60;;;;;;;;;;5080367;28;20011;-74
2021/11/16 03:21:00;;;;;;;146.13;35.90;;;;;;;;;;5091994;28;20107;-74
2021/11/16 03:23:26;;;;;;;185.13;35.58;;;;;;;;;;5077001;28;20029;-74
2021/11/16 03:25:55;;;;;;;286.77;44.57;;;;;;;;;;5085434;28;20032;-73
2021/11/16 03:28:21;;;;;;;214.07;38.97;;;;;;;;;;5072205;28;20560;-73
2021/11/16 03:30:51;;;;;;;175.60;34.92;;;;;;;;;;5071407;28;20054;-73
2021/11/16 03:33:17;;;;;;;268.75;42.03;;;;;;;;;;5091241;28;20023;-73
2021/11/16 03:35:43;;;;;;;180.73;35.83;;;;;;;;;;5092164;28;20160;-73
2021/11/16 03:38:09;;;;;;;163.52;36.10;;;;;;;;;;5092123;28;20475;-74
2021/11/16 03:40:35;;;;;;;126.87;30.93;;;;;;;;;;5081211;28;20032;-74
2021/11/16 03:43:01;;;;;;;217.47;37.03;;;;;;;;;;5090932;28;20024;-73
2021/11/16 03:45:26;;;;;;;161.97;33.40;;;;;;;;;;5074112;28;20028;-73
2021/11/16 03:47:53;;;;;;;182.07;36.38;;;;;;;;;;5092037;28;20028;-73
2021/11/16 03:50:20;;;;;;;131.18;33.17;;;;;;;;;;5090524;28;20790;-77
2021/11/16 03:52:52;;;;;;;98.10;28.30;;;;;;;;;;5082076;28;20027;-75
2021/11/16 03:55:17;;;;;;;129.23;32.33;;;;;;;;;;5080526;28;20391;-75
2021/11/16 03:57:43;;;;;;;52.65;23.20;;;;;;;;;;5083090;28;20457;-75
2021/11/16 04:00:10;;;;;;;129.83;29.67;;;;;;;;;;5091740;28;20020;-74
2021/11/16 04:02:35;;;;;;;88.45;26.58;;;;;;;;;;5078425;28;20062;-76
2021/11/16 04:05:03;;;;;;;44.03;23.53;;;;;;;;;;5090402;28;20040;-76
2021/11/16 04:07:28;;;;;;;49.90;24.00;;;;;;;;;;5090731;28;20792;-75
2021/11/16 04:09:53;;;;;;;51.13;23.42;;;;;;;;;;5089010;28;20034;-73
2021/11/16 04:12:19;;;;;;;40.97;21.50;;;;;;;;;;5086511;28;20404;-73
2021/11/16 04:14:44;;;;;;;32.40;20.30;;;;;;;;;;5090544;28;20436;-74
2021/11/16 04:17:10;;;;;;;32.72;20.20;;;;;;;;;;5092012;28;20482;-74
2021/11/16 04:19:35;;;;;;;42.67;22.48;;;;;;;;;;5090741;28;20107;-74
2021/11/16 04:22:00;;;;;;;36.10;22.27;;;;;;;;;;5082346;28;20020;-74
2021/11/16 04:24:25;;;;;;;33.75;20.77;;;;;;;;;;5082286;28;20025;-72
2021/11/16 04:26:51;;;;;;;38.30;21.50;;;;;;;;;;5069758;28;20028;-75
2021/11/16 04:29:16;;;;;;;34.92;20.35;;;;;;;;;;5070065;28;20375;-74
2021/11/16 04:31:42;;;;;;;53.50;23.42;;;;;;;;;;5076748;28;20074;-75
2021/11/16 04:34:07;;;;;;;42.50;22.55;;;;;;;;;;5072534;28;20035;-74
2021/11/16 04:36:33;;;;;;;43.15;21.77;;;;;;;;;;5071084;28;20051;-74
2021/11/16 04:38:59;;;;;;;43.13;23.58;;;;;;;;;;5091078;28;20031;-75
2021/11/16 04:41:24;;;;;;;58.50;25.27;;;;;;;;;;5089149;28;20119;-75
2021/11/16 04:43:49;;;;;;;47.53;23.77;;;;;;;;;;5089900;28;20032;-77
2021/11/16 04:46:19;;;;;;;60.35;27.02;;;;;;;;;;5070167;28;20024;-77
2021/11/16 05:02:37;;;;;;;30.05;20.13;;;;;;;;;;5037923;28;20025;-74
2021/11/16 05:05:03;;;;;;;32.90;19.90;;;;;;;;;;5030841;28;20421;-74
2021/11/16 05:07:31;;;;;;;34.17;20.08;;;;;;;;;;5035145;28;20071;-76
2021/11/16 05:09:57;;;;;;;34.35;19.50;;;;;;;;;;5041984;28;20140;-76
2021/11/16 05:12:23;;;;;;;36.65;21.00;;;;;;;;;;5033399;28;20163;-76
2021/11/16 05:14:49;;;;;;;35.55;21.02;;;;;;;;;;5039981;28;20108;-76
2021/11/16 05:17:14;;;;;;;40.33;22.83;;;;;;;;;;5050608;28;20163;-77
2021/11/16 05:19:39;;;;;;;35.70;21.08;;;;;;;;;;5051786;28;20095;-77
2021/11/16 05:22:05;;;;;;;37.33;20.75;;;;;;;;;;5014336;28;20045;-76
2021/11/16 05:24:30;;;;;;;35.05;21.38;;;;;;;;;;5050991;28;20033;-76
2021/11/16 05:26:56;;;;;;;32.03;20.33;;;;;;;;;;5020065;28;20437;-76
2021/11/16 05:29:21;;;;;;;35.33;20.52;;;;;;;;;;5035890;28;20457;-76
2021/11/16 05:31:46;;;;;;;39.05;20.83;;;;;;;;;;5037102;28;20124;-76
2021/11/16 05:34:12;;;;;;;37.90;21.60;;;;;;;;;;5093873;28;20031;-77
2021/11/16 05:36:37;;;;;;;39.88;22.85;;;;;;;;;;5092169;28;20020;-77
2021/11/16 05:39:03;;;;;;;37.92;22.50;;;;;;;;;;5090130;28;20020;-77
2021/11/16 05:41:29;;;;;;;34.35;20.83;;;;;;;;;;5075353;28;20032;-75
2021/11/16 05:43:54;;;;;;;38.58;22.05;;;;;;;;;;5086698;28;20020;-77
2021/11/16 05:46:23;;;;;;;32.83;20.80;;;;;;;;;;5075780;28;20039;-77
2021/11/16 05:48:49;;;;;;;42.50;23.00;;;;;;;;;;5093941;28;20118;-76
2021/11/16 05:51:17;;;;;;;38.53;21.83;;;;;;;;;;5093098;28;20067;-74
2021/11/16 05:53:45;;;;;;;37.47;22.50;;;;;;;;;;5075920;28;20024;-75
2021/11/16 05:56:10;;;;;;;39.97;22.27;;;;;;;;;;5073630;28;20449;-75
2021/11/16 05:58:39;;;;;;;40.60;22.50;;;;;;;;;;5075165;28;20055;-76
2021/11/16 06:01:04;;;;;;;37.95;21.73;;;;;;;;;;5092561;28;20391;-76
2021/11/16 06:03:29;;;;;;;36.70;21.83;;;;;;;;;;5069422;28;20040;-76
2021/11/16 06:05:54;;;;;;;36.10;21.00;;;;;;;;;;5083630;28;20032;-76
2021/11/16 06:08:24;;;;;;;40.00;22.67;;;;;;;;;;5092297;28;20503;-77
2021/11/16 06:10:50;;;;;;;35.20;21.38;;;;;;;;;;5086716;28;20037;-75
2021/11/16 06:13:15;;;;;;;37.08;21.65;;;;;;;;;;5085385;28;20042;-77
2021/11/16 06:15:41;;;;;;;36.90;22.00;;;;;;;;;;5093506;28;20028;-75
2021/11/16 06:18:06;;;;;;;39.40;21.90;;;;;;;;;;5088359;28;20020;-76
2021/11/16 06:20:32;;;;;;;41.55;24.33;;;;;;;;;;5083155;28;20028;-75
2021/11/16 06:22:57;;;;;;;38.95;24.42;;;;;;;;;;5081309;28;20020;-77
2021/11/16 06:25:22;;;;;;;39.75;23.25;;;;;;;;;;5091257;28;20024;-76
2021/11/16 06:27:48;;;;;;;35.75;21.92;;;;;;;;;;5081819;28;20135;-74
2021/11/16 06:30:13;;;;;;;36.08;22.58;;;;;;;;;;5091927;28;20435;-75
2021/11/16 06:32:38;;;;;;;40.55;24.08;;;;;;;;;;5081863;28;20016;-74
2021/11/16 06:35:04;;;;;;;33.97;21.55;;;;;;;;;;5093245;28;20381;-75
2021/11/16 06:37:29;;;;;;;29.95;19.50;;;;;;;;;;5075153;28;20020;-74
2021/11/16 06:39:54;;;;;;;33.38;20.08;;;;;;;;;;5088494;28;20420;-75
2021/11/16 06:42:19;;;;;;;33.42;19.85;;;;;;;;;;5085976;28;20024;-75
2021/11/16 06:44:46;;;;;;;32.03;20.25;;;;;;;;;;5093632;28;20068;-76
2021/11/16 06:47:13;;;;;;;43.05;23.75;;;;;;;;;;5080172;28;20512;-76
2021/11/16 06:49:47;;;;;;;34.70;21.48;;;;;;;;;;5117344;27;20131;-76
2021/11/16 06:52:12;;;;;;;38.40;22.23;;;;;;;;;;5082695;28;20020;-74
2021/11/16 06:54:37;;;;;;;33.05;22.08;;;;;;;;;;5071595;28;20186;-76
2021/11/16 06:57:03;;;;;;;36.22;21.13;;;;;;;;;;5093112;28;20012;-75
2021/11/16 06:59:28;;;;;;;33.58;20.90;;;;;;;;;;5098441;28;20542;-76
2021/11/16 07:01:54;;;;;;;33.80;21.55;;;;;;;;;;5089746;28;20401;-76
2021/11/16 07:04:19;;;;;;;36.90;22.48;;;;;;;;;;5073338;28;20036;-75
2021/11/16 07:06:45;;;;;;;37.97;21.30;;;;;;;;;;5094526;28;20022;-77
2021/11/16 07:09:13;;;;;;;34.25;21.00;;;;;;;;;;5088700;28;20016;-77
2021/11/16 07:11:45;;;;;;;36.63;20.20;;;;;;;;;;5089352;28;20389;-75
2021/11/16 07:14:11;;;;;;;34.53;21.50;;;;;;;;;;5088551;28;20024;-77
2021/11/16 07:16:37;;;;;;;33.55;21.90;;;;;;;;;;5094425;28;20024;-76
2021/11/16 07:19:04;;;;;;;34.80;20.75;;;;;;;;;;5103954;28;20051;-78
2021/11/16 07:21:41;;;;;;;33.20;21.73;;;;;;;;;;5088630;28;20020;-76
2021/11/16 07:24:09;;;;;;;34.70;22.25;;;;;;;;;;5082098;28;20031;-77
2021/11/16 07:26:39;;;;;;;33.17;21.25;;;;;;;;;;5086207;28;20476;-76
2021/11/16 07:29:07;;;;;;;35.10;21.65;;;;;;;;;;5070155;28;20024;-77
2021/11/16 07:31:33;;;;;;;33.88;21.05;;;;;;;;;;5081067;28;20103;-77
2021/11/16 07:34:06;;;;;;;30.10;19.65;;;;;;;;;;5074192;28;20127;-78
2021/11/16 07:36:32;;;;;;;35.67;20.35;;;;;;;;;;5091422;28;20024;-76
2021/11/16 07:39:02;;;;;;;34.65;21.27;;;;;;;;;;5081754;28;20039;-76
2021/11/16 07:41:28;;;;;;;33.03;22.02;;;;;;;;;;5076218;28;20008;-76
2021/11/16 07:43:53;;;;;;;32.60;21.55;;;;;;;;;;5069688;28;20385;-76
2021/11/16 07:46:18;;;;;;;33.78;21.15;;;;;;;;;;5081383;28;20028;-75
2021/11/16 07:48:44;;;;;;;35.45;22.35;;;;;;;;;;5085601;28;20053;-77
2021/11/16 07:51:12;;;;;;;32.80;21.98;;;;;;;;;;5080174;28;20024;-75
2021/11/16 07:53:41;;;;;;;32.42;20.65;;;;;;;;;;5081653;28;20020;-77
2021/11/16 07:56:14;;;;;;;31.60;20.65;;;;;;;;;;5072442;28;20021;-77
2021/11/16 07:58:46;;;;;;;32.90;21.02;;;;;;;;;;5086001;28;20111;-77
2021/11/16 08:01:19;;;;;;;33.33;21.27;;;;;;;;;;5091144;28;20008;-77
2021/11/16 08:03:50;;;;;;;30.70;19.92;;;;;;;;;;5077032;28;20013;-76
2021/11/16 08:06:21;;;;;;;33.35;20.95;;;;;;;;;;5063175;28;20575;-77
2021/11/16 08:14:00;;;;;;;30.27;19.77;;;;;;;;;;5079255;28;20081;-74
2021/11/16 08:16:26;;;;;;;26.98;19.15;;;;;;;;;;5077329;28;20038;-76
2021/11/16 08:18:56;;;;;;;27.65;19.15;;;;;;;;;;5086828;28;20055;-76
2021/11/16 08:21:21;;;;;;;28.27;19.33;;;;;;;;;;5089459;28;20503;-75
2021/11/16 08:23:46;;;;;;;30.52;20.42;;;;;;;;;;5073409;28;20048;-76
2021/11/16 08:26:12;;;;;;;25.42;17.85;;;;;;;;;;5071440;28;20061;-76
2021/11/16 08:28:37;;;;;;;27.15;18.73;;;;;;;;;;5084674;28;20048;-76
2021/11/16 08:31:03;;;;;;;24.20;17.33;;;;;;;;;;5086672;28;20032;-77
2021/11/16 08:33:28;;;;;;;28.15;18.42;;;;;;;;;;5077667;28;20039;-76
2021/11/16 08:35:53;;;;;;;26.95;18.73;;;;;;;;;;5094214;28;20024;-77
2021/11/16 08:38:18;;;;;;;23.45;17.15;;;;;;;;;;5092529;28;20043;-76
2021/11/16 08:40:45;;;;;;;24.50;16.85;;;;;;;;;;5085725;28;20699;-76
2021/11/16 08:43:14;;;;;;;24.83;17.00;;;;;;;;;;5084607;28;20024;-75
2021/11/16 08:45:45;;;;;;;25.95;17.88;;;;;;;;;;5090544;28;20031;-76
2021/11/16 08:48:16;;;;;;;24.65;16.73;;;;;;;;;;5078188;28;20032;-68
2021/11/16 08:50:49;;;;;;;23.98;16.13;;;;;;;;;;5085084;28;20376;-70
2021/11/16 08:53:15;;;;;;;23.83;16.02;;;;;;;;;;5083096;28;20020;-70
2021/11/16 08:55:41;;;;;;;24.10;16.50;;;;;;;;;;5082339;28;20021;-74
2021/11/16 08:58:08;;;;;;;21.98;15.73;;;;;;;;;;5083612;28;20487;-70
2021/11/16 09:00:35;;;;;;;22.00;15.63;;;;;;;;;;5081819;28;20038;-70
2021/11/16 09:03:03;;;;;;;22.17;16.48;;;;;;;;;;5081726;28;20401;-69
2021/11/16 09:05:31;;;;;;;24.20;16.23;;;;;;;;;;5089423;28;20021;-73
2021/11/16 09:08:00;;;;;;;22.52;15.45;;;;;;;;;;5077641;28;20032;-75
2021/11/16 09:10:33;;;;;;;20.90;15.38;;;;;;;;;;5086356;28;20024;-75
2021/11/16 09:13:00;;;;;;;21.35;15.70;;;;;;;;;;5081005;28;20374;-75
2021/11/16 09:15:31;;;;;;;20.70;14.77;;;;;;;;;;5088344;28;20093;-81
2021/11/16 09:18:17;;;;;;;19.45;14.27;;;;;;;;;;5074824;28;20020;-70
2021/11/16 09:20:44;;;;;;;19.75;14.27;;;;;;;;;;5070207;28;20082;-69
2021/11/16 09:23:18;;;;;;;19.02;13.95;;;;;;;;;;5078312;28;20028;-69
2021/11/16 09:25:43;;;;;;;19.70;15.02;;;;;;;;;;5087951;28;20095;-70
2021/11/16 09:28:34;;;;;;;21.58;14.73;;;;;;;;;;5074809;28;20143;-71
2021/11/16 09:31:00;;;;;;;19.50;13.77;;;;;;;;;;5092700;28;20138;-77
2021/11/16 09:33:25;;;;;;;19.05;14.32;;;;;;;;;;5093030;28;20055;-78
2021/11/16 09:35:59;;;;;;;20.17;15.05;;;;;;;;;;5099683;28;20091;-77
2021/11/16 09:38:58;;;;;;;20.52;15.07;;;;;;;;;;5084034;28;20043;-77
2021/11/16 09:41:31;;;;;;;20.08;13.82;;;;;;;;;;5100109;28;20020;-77
2021/11/16 09:44:05;;;;;;;20.27;14.20;;;;;;;;;;5105589;28;20077;-78
2021/11/16 09:46:31;;;;;;;22.58;14.07;;;;;;;;;;5101291;28;20051;-78
2021/11/16 09:48:57;;;;;;;20.88;13.77;;;;;;;;;;5085011;28;20020;-79
2021/11/16 09:51:22;;;;;;;21.17;14.75;;;;;;;;;;5081322;28;20039;-79
2021/11/16 09:54:01;;;;;;;21.50;14.82;;;;;;;;;;5099809;28;20030;-75
2021/11/16 09:56:26;;;;;;;19.38;13.90;;;;;;;;;;5084939;28;20456;-78
2021/11/16 09:58:52;;;;;;;18.90;13.70;;;;;;;;;;5106854;28;20028;-78
2021/11/16 10:01:24;;;;;;;19.38;13.52;;;;;;;;;;5098176;28;20024;-78
2021/11/16 10:04:04;;;;;;;20.92;14.50;;;;;;;;;;5097917;28;20404;-77
2021/11/16 10:06:30;;;;;;;18.25;13.80;;;;;;;;;;5096273;28;20090;-78
2021/11/16 10:08:56;;;;;;;18.63;13.50;;;;;;;;;;5092458;28;20476;-78
2021/11/16 10:11:21;;;;;;;19.42;14.13;;;;;;;;;;5079107;28;20020;-77
2021/11/16 10:13:46;;;;;;;17.23;13.35;;;;;;;;;;5087551;28;20027;-77
2021/11/16 10:16:12;;;;;;;17.80;13.35;;;;;;;;;;5094392;28;20606;-76
2021/11/16 10:18:38;;;;;;;20.63;14.45;;;;;;;;;;5095972;28;20487;-76
2021/11/16 10:21:06;;;;;;;18.05;13.98;;;;;;;;;;5096070;28;20012;-76
2021/11/16 10:23:32;;;;;;;16.67;12.75;;;;;;;;;;5081175;28;20020;-75
2021/11/16 10:25:58;;;;;;;18.60;14.25;;;;;;;;;;5091653;28;20043;-76
2021/11/16 10:28:23;;;;;;;20.17;13.43;;;;;;;;;;5071678;28;20052;-76
2021/11/16 10:30:49;;;;;;;18.55;12.98;;;;;;;;;;5075530;28;20393;-76
2021/11/16 10:33:15;;;;;;;16.42;12.05;;;;;;;;;;5075170;28;20122;-80
2021/11/16 10:35:48;;;;;;;20.73;13.40;;;;;;;;;;5099516;28;20259;-78
2021/11/16 10:38:15;;;;;;;16.63;13.00;;;;;;;;;;5099304;28;20016;-79
2021/11/16 10:40:40;;;;;;;16.83;12.55;;;;;;;;;;5096382;28;20278;-78
2021/11/16 10:43:06;;;;;;;15.98;12.82;;;;;;;;;;5093303;28;20028;-78
2021/11/16 10:45:34;;;;;;;14.55;12.38;;;;;;;;;;5093360;28;20020;-79
2021/11/16 10:48:01;;;;;;;15.95;12.25;;;;;;;;;;5092198;28;20464;-80
2021/11/16 10:50:29;;;;;;;15.23;12.30;;;;;;;;;;5091043;28;20293;-79
2021/11/16 10:53:01;;;;;;;17.30;13.10;;;;;;;;;;5083317;28;20012;-77
2021/11/16 10:55:37;;;;;;;16.58;13.50;;;;;;;;;;5098107;28;20020;-78
2021/11/16 10:58:06;;;;;;;15.02;12.88;;;;;;;;;;5109442;28;20020;-77
2021/11/16 11:00:33;;;;;;;17.40;13.73;;;;;;;;;;5095561;28;20027;-76
2021/11/16 11:03:17;;;;;;;18.10;14.50;;;;;;;;;;5122877;27;20020;-75
2021/11/16 11:05:46;;;;;;;17.83;13.32;;;;;;;;;;5122722;28;20043;-77
2021/11/16 11:08:26;;;;;;;18.75;14.23;;;;;;;;;;5100543;28;20043;-77
2021/11/16 11:10:52;;;;;;;19.63;13.90;;;;;;;;;;5083547;28;20025;-77
2021/11/16 11:13:20;;;;;;;17.35;13.80;;;;;;;;;;5098741;28;20043;-77
2021/11/16 11:15:45;;;;;;;19.02;13.63;;;;;;;;;;5100446;28;20027;-77
2021/11/16 11:18:12;;;;;;;17.88;15.35;;;;;;;;;;5099975;28;20028;-67
2021/11/16 11:20:37;;;;;;;18.17;14.80;;;;;;;;;;5088313;28;20020;-77
2021/11/16 11:23:22;;;;;;;21.35;15.40;;;;;;;;;;5078075;28;20025;-78
2021/11/16 11:25:49;;;;;;;20.13;14.73;;;;;;;;;;5078576;28;20472;-77
2021/11/16 11:28:33;;;;;;;20.15;14.93;;;;;;;;;;5090823;28;20056;-78
2021/11/16 11:30:58;;;;;;;22.15;15.23;;;;;;;;;;5087027;28;20028;-77
2021/11/16 11:33:43;;;;;;;20.10;15.00;;;;;;;;;;5074257;28;20025;-78
2021/11/16 11:36:22;;;;;;;18.92;15.18;;;;;;;;;;5093334;28;20020;-78
2021/11/16 11:38:47;;;;;;;16.90;13.88;;;;;;;;;;5091724;28;20103;-75
2021/11/16 11:41:13;;;;;;;19.10;14.70;;;;;;;;;;5089992;28;20090;-79
2021/11/16 11:43:39;;;;;;;15.27;12.73;;;;;;;;;;5084796;28;20495;-79
2021/11/16 11:46:04;;;;;;;19.38;14.13;;;;;;;;;;5073976;28;20024;-78
2021/11/16 11:48:29;;;;;;;17.85;14.35;;;;;;;;;;5079726;28;20506;-77
2021/11/16 11:50:59;;;;;;;18.38;15.15;;;;;;;;;;5090915;28;20530;-72
2021/11/16 11:53:26;;;;;;;17.85;14.18;;;;;;;;;;5082840;28;20048;-79
2021/11/16 11:55:51;;;;;;;16.00;13.43;;;;;;;;;;5080444;28;20119;-78
2021/11/16 11:58:17;;;;;;;16.63;12.75;;;;;;;;;;5087216;28;20020;-79
2021/11/16 12:00:44;;;;;;;16.02;14.30;;;;;;;;;;5091719;28;20017;-78
2021/11/16 12:03:09;;;;;;;15.85;13.57;;;;;;;;;;5092084;28;20032;-78
2021/11/16 12:05:36;;;;;;;17.50;14.95;;;;;;;;;;5086661;28;20031;-78
2021/11/16 12:08:02;;;;;;;17.90;14.43;;;;;;;;;;5088526;28;20028;-79
2021/11/16 12:10:27;;;;;;;14.80;13.15;;;;;;;;;;5081307;28;20035;-79
2021/11/16 12:12:53;;;;;;;15.70;13.60;;;;;;;;;;5089234;28;20040;-82
2021/11/16 12:15:27;;;;;;;16.65;14.13;;;;;;;;;;5091610;28;20127;-81
2021/11/16 12:17:54;;;;;;;16.00;13.63;;;;;;;;;;5089911;28;20022;-74
2021/11/16 12:20:38;;;;;;;20.63;15.68;;;;;;;;;;5090173;28;20032;-81
2021/11/16 12:23:03;;;;;;;18.27;14.90;;;;;;;;;;5071427;28;20015;-81
2021/11/16 12:25:29;;;;;;;17.63;15.05;;;;;;;;;;5070232;28;20022;-82
2021/11/16 12:27:55;;;;;;;17.83;14.75;;;;;;;;;;5070869;28;20076;-82
2021/11/16 12:30:20;;;;;;;17.50;14.50;;;;;;;;;;5061205;28;20098;-79
2021/11/16 12:32:52;;;;;;;19.20;15.25;;;;;;;;;;5085872;28;20077;-81
2021/11/16 12:35:20;;;;;;;19.02;14.90;;;;;;;;;;5090411;28;20020;-82
2021/11/16 12:37:52;;;;;;;24.02;18.13;;;;;;;;;;5090648;28;20027;-82
2021/11/16 12:40:20;;;;;;;17.67;15.48;;;;;;;;;;5086515;28;20476;-82
2021/11/16 12:43:04;;;;;;;19.05;16.00;;;;;;;;;;5090996;28;20388;-82
2021/11/16 12:45:44;;;;;;;18.75;15.60;;;;;;;;;;5071241;28;20028;-82
2021/11/16 12:48:10;;;;;;;19.02;15.48;;;;;;;;;;5070142;28;20021;-82
2021/11/16 12:50:36;;;;;;;20.95;16.40;;;;;;;;;;5075116;28;20035;-82
2021/11/16 12:53:02;;;;;;;21.15;17.23;;;;;;;;;;5075370;28;20412;-82
2021/11/16 12:55:28;;;;;;;21.60;17.27;;;;;;;;;;5066112;28;20537;-82
2021/11/16 12:57:58;;;;;;;19.92;17.13;;;;;;;;;;5087135;28;20012;-83
2021/11/16 13:00:33;;;;;;;22.23;17.65;;;;;;;;;;5090404;28;20504;-83
2021/11/16 13:02:59;;;;;;;21.75;18.50;;;;;;;;;;5078482;28;20022;-83
2021/11/16 13:05:29;;;;;;;22.83;18.40;;;;;;;;;;5090626;28;20044;-84
2021/11/16 13:07:55;;;;;;;21.27;18.20;;;;;;;;;;5090732;28;20024;-82
2021/11/16 13:10:22;;;;;;;21.50;18.42;;;;;;;;;;5078299;28;20097;-81
2021/11/16 13:12:50;;;;;;;22.42;18.30;;;;;;;;;;5091545;28;20037;-83
2021/11/16 13:15:35;;;;;;;22.65;18.48;;;;;;;;;;5101213;28;20031;-81
2021/11/16 13:18:03;;;;;;;24.00;18.83;;;;;;;;;;5095111;28;20036;-81
2021/11/16 13:20:28;;;;;;;22.30;17.98;;;;;;;;;;5085776;28;20028;-81
2021/11/16 13:22:58;;;;;;;22.35;17.70;;;;;;;;;;5083266;28;20020;-82
2021/11/16 13:25:39;;;;;;;24.15;18.63;;;;;;;;;;5082891;28;20039;-81
2021/11/16 13:28:13;;;;;;;21.75;17.98;;;;;;;;;;5081423;28;20040;-82
2021/11/16 13:30:38;;;;;;;22.65;18.02;;;;;;;;;;5078760;28;20507;-81
2021/11/16 13:33:22;;;;;;;24.50;18.25;;;;;;;;;;5090386;28;20028;-83
2021/11/16 13:36:15;;;;;;;24.48;18.77;;;;;;;;;;5101304;28;20468;-82
2021/11/16 13:39:01;;;;;;;23.30;18.83;;;;;;;;;;5076745;28;20138;-82
2021/11/16 13:41:41;;;;;;;25.23;19.85;;;;;;;;;;5091808;28;20028;-82
2021/11/16 13:44:18;;;;;;;25.73;19.30;;;;;;;;;;5111195;28;20032;-80
2021/11/16 13:46:44;;;;;;;26.70;20.17;;;;;;;;;;5107175;28;20089;-82
2021/11/16 13:49:10;;;;;;;26.40;19.42;;;;;;;;;;5109518;28;20028;-76
2021/11/16 13:51:36;;;;;;;28.05;20.63;;;;;;;;;;5109897;28;20027;-79
2021/11/16 13:54:04;;;;;;;29.48;20.85;;;;;;;;;;5102786;28;20054;-79
2021/11/16 13:56:29;;;;;;;31.73;21.85;;;;;;;;;;5103207;28;20016;-81
2021/11/16 13:58:54;;;;;;;30.45;22.45;;;;;;;;;;5087595;28;20020;-80
2021/11/16 14:01:33;;;;;;;38.42;23.35;;;;;;;;;;5095715;28;20073;-79
2021/11/16 14:04:15;;;;;;;31.55;21.80;;;;;;;;;;5101235;28;20032;-82
2021/11/16 14:06:41;;;;;;;31.90;21.75;;;;;;;;;;5098978;28;20110;-79
2021/11/16 14:09:22;;;;;;;36.85;23.40;;;;;;;;;;5114468;28;20020;-79
2021/11/16 14:11:51;;;;;;;33.67;22.52;;;;;;;;;;5107792;28;20021;-79
2021/11/16 14:14:18;;;;;;;26.17;20.23;;;;;;;;;;5105496;28;20107;-80
2021/11/16 14:16:43;;;;;;;27.90;21.58;;;;;;;;;;5105440;28;20115;-80
2021/11/16 14:19:09;;;;;;;30.05;21.70;;;;;;;;;;5105603;28;20024;-80
2021/11/16 14:21:38;;;;;;;34.05;25.83;;;;;;;;;;5091094;28;20031;-77
2021/11/16 14:24:03;;;;;;;30.20;23.23;;;;;;;;;;5102894;28;20016;-78
2021/11/16 14:26:29;;;;;;;26.92;20.83;;;;;;;;;;5108885;28;20031;-79
2021/11/16 14:28:56;;;;;;;31.27;23.45;;;;;;;;;;5101645;28;20060;-79
2021/11/16 14:31:23;;;;;;;28.60;22.50;;;;;;;;;;5100573;28;20047;-77
2021/11/16 14:33:52;;;;;;;30.38;23.08;;;;;;;;;;5100102;28;20020;-80
2021/11/16 14:36:27;;;;;;;29.80;22.02;;;;;;;;;;5091666;28;20021;-79
2021/11/16 14:38:53;;;;;;;30.42;23.20;;;;;;;;;;5098843;28;20072;-79